createdAt,value
2022-10-11T08:29:32.960Z,100.00
2022-10-11T08:31:36.890Z,100.00
2022-10-11T08:33:39.859Z,100.00
2022-10-11T08:35:42.295Z,100.00
2022-10-11T08:37:44.844Z,100.00
2022-10-11T08:39:47.352Z,100.00
2022-10-11T08:41:56.962Z,100.00
2022-10-11T08:44:20.885Z,100.00
2022-10-11T08:46:29.151Z,100.00
2022-10-11T08:48:49.471Z,100.00
2022-10-11T08:50:54.405Z,100.00
2022-10-11T08:53:02.598Z,100.00
2022-10-11T08:55:08.337Z,100.00
2022-10-11T08:57:25.981Z,100.00
2022-10-11T08:59:31.022Z,100.00
2022-10-11T09:01:33.399Z,100.00
2022-10-11T09:03:42.582Z,100.00
2022-10-11T09:05:58.211Z,100.00
2022-10-11T09:08:19.591Z,100.00
2022-10-11T09:10:55.014Z,100.00
2022-10-11T09:13:31.482Z,100.00
2022-10-11T09:15:56.633Z,100.00
2022-10-11T09:18:05.029Z,100.00
2022-10-11T09:20:10.223Z,100.00
2022-10-11T09:22:30.371Z,100.00
2022-10-11T09:25:05.796Z,100.00
2022-10-11T09:27:50.319Z,100.00
2022-10-11T09:30:05.049Z,100.00
2022-10-11T09:32:15.361Z,100.00
2022-10-11T09:34:18.696Z,100.00
2022-10-11T09:36:23.919Z,100.00
2022-10-11T09:39:06.627Z,100.00
2022-10-11T09:41:24.890Z,100.00
2022-10-11T09:43:27.696Z,100.00
2022-10-11T09:45:30.000Z,100.00
2022-10-11T09:47:33.147Z,100.00
2022-10-11T09:49:42.666Z,100.00
2022-10-11T09:51:55.642Z,100.00
2022-10-11T09:53:59.510Z,100.00
2022-10-11T09:56:04.579Z,100.00
2022-10-11T09:58:25.422Z,100.00
2022-10-11T10:00:33.582Z,100.00
2022-10-11T10:02:44.363Z,100.00
2022-10-11T10:04:55.828Z,100.00
2022-10-11T10:07:12.918Z,100.00
2022-10-11T10:09:24.333Z,100.00
2022-10-11T10:11:37.249Z,100.00
2022-10-11T10:13:53.540Z,100.00
2022-10-11T10:16:01.365Z,100.00
2022-10-11T10:18:10.552Z,100.00
2022-10-11T10:20:31.685Z,100.00
2022-10-11T10:22:35.873Z,100.00
2022-10-11T10:24:41.344Z,100.00
2022-10-11T10:27:06.319Z,100.00
2022-10-11T10:29:08.743Z,100.00
2022-10-11T10:31:23.114Z,100.00
2022-10-11T10:33:30.126Z,100.00
2022-10-11T10:35:48.615Z,100.00
2022-10-11T10:37:50.776Z,100.00
2022-10-11T10:40:01.973Z,100.00
2022-10-11T10:45:59.338Z,100.00
2022-10-11T10:48:07.849Z,100.00
2022-10-11T10:50:21.712Z,100.00
2022-10-11T10:52:47.667Z,100.00
2022-10-11T10:55:22.936Z,100.00
2022-10-11T10:57:40.269Z,100.00
2022-10-11T11:00:10.405Z,100.00
2022-10-11T11:02:40.200Z,100.00
2022-10-11T11:07:28.685Z,100.00
2022-10-11T11:10:00.791Z,100.00
2022-10-11T11:12:14.260Z,100.00
2022-10-11T11:14:59.561Z,99.84
2022-10-11T11:17:05.992Z,96.51
2022-10-11T11:19:23.839Z,93.23
2022-10-11T11:21:39.107Z,88.14
2022-10-11T11:23:56.279Z,84.11
2022-10-11T11:26:10.887Z,82.84
2022-10-11T11:28:25.259Z,81.64
2022-10-11T11:30:36.884Z,82.41
2022-10-11T11:33:09.860Z,78.59
2022-10-11T11:35:24.270Z,74.57
2022-10-11T11:37:32.418Z,75.47
2022-10-11T11:39:43.407Z,76.20
2022-10-11T11:41:59.251Z,75.43
2022-10-11T11:44:28.101Z,82.81
2022-10-11T11:46:47.308Z,90.42
2022-10-11T11:48:52.261Z,88.61
2022-10-11T11:51:07.845Z,91.76
2022-10-11T11:53:25.198Z,88.04
2022-10-11T11:55:42.564Z,78.63
2022-10-11T11:57:59.435Z,72.12
2022-10-11T12:00:12.788Z,70.80
2022-10-11T12:02:38.495Z,71.82
2022-10-11T12:04:44.169Z,74.92
2022-10-11T12:07:15.474Z,75.47
2022-10-11T12:09:18.608Z,74.66
2022-10-11T12:11:26.112Z,73.81
2022-10-11T12:13:37.117Z,76.50
2022-10-11T12:15:39.870Z,76.55
2022-10-11T12:17:57.769Z,75.53
2022-10-11T12:20:25.764Z,79.54
2022-10-11T12:22:28.151Z,78.94
2022-10-11T12:24:55.259Z,80.44
2022-10-11T12:26:59.036Z,83.36
2022-10-11T12:29:42.301Z,93.08
2022-10-11T12:31:50.243Z,91.85
2022-10-11T12:34:00.471Z,94.41
2022-10-11T12:36:21.840Z,99.46
2022-10-11T12:38:33.137Z,100.00
2022-10-11T12:40:37.488Z,100.00
2022-10-11T12:43:11.593Z,100.00
2022-10-11T12:45:13.710Z,100.00
2022-10-11T12:47:42.997Z,100.00
2022-10-11T12:49:51.650Z,100.00
2022-10-11T12:51:53.841Z,100.00
2022-10-11T12:54:26.806Z,100.00
2022-10-11T12:56:56.778Z,100.00
2022-10-11T12:59:06.376Z,100.00
2022-10-11T13:01:13.880Z,100.00
2022-10-11T13:03:34.747Z,100.00
2022-10-11T13:05:49.709Z,100.00
2022-10-11T13:07:59.115Z,100.00
2022-10-11T13:10:05.022Z,100.00
2022-10-11T13:12:13.274Z,100.00
2022-10-11T13:14:21.818Z,100.00
2022-10-11T13:16:28.330Z,100.00
2022-10-11T13:18:30.613Z,100.00
2022-10-11T13:20:37.533Z,100.00
2022-10-11T13:22:44.271Z,100.00
2022-10-11T13:24:46.743Z,100.00
2022-10-11T13:26:51.437Z,100.00
2022-10-11T13:28:54.010Z,100.00
2022-10-11T13:30:58.568Z,100.00
2022-10-11T13:33:05.414Z,100.00
2022-10-11T13:35:21.044Z,100.00
2022-10-11T13:37:28.422Z,100.00
2022-10-11T13:39:36.342Z,100.00
2022-10-11T13:41:38.910Z,100.00
2022-10-11T13:43:41.360Z,100.00
2022-10-11T13:45:43.635Z,100.00
2022-10-11T13:47:48.304Z,100.00
2022-10-11T13:50:01.791Z,100.00
2022-10-11T13:52:19.426Z,100.00
2022-10-11T13:54:22.035Z,100.00
2022-10-11T13:56:25.320Z,100.00
2022-10-11T13:58:30.151Z,100.00
2022-10-11T14:00:36.783Z,100.00
2022-10-11T14:02:39.859Z,100.00
2022-10-11T14:04:42.129Z,100.00
2022-10-11T14:06:48.105Z,100.00
2022-10-11T14:08:56.199Z,100.00
2022-10-11T14:11:02.479Z,100.00
2022-10-11T14:13:34.454Z,100.00
2022-10-11T14:15:38.201Z,100.00
2022-10-11T14:17:43.750Z,100.00
2022-10-11T14:19:48.711Z,100.00
2022-10-11T14:21:53.043Z,100.00
2022-10-11T14:24:00.113Z,100.00
2022-10-11T14:26:02.541Z,100.00
2022-10-11T14:28:11.967Z,100.00
2022-10-11T14:30:25.771Z,100.00
2022-10-11T14:32:34.180Z,100.00
2022-10-11T14:34:37.062Z,100.00
2022-10-11T14:36:39.343Z,100.00
2022-10-11T14:38:41.792Z,100.00
2022-10-11T14:40:44.285Z,100.00
2022-10-11T14:42:47.201Z,100.00
2022-10-11T14:44:49.470Z,100.00
2022-10-11T14:46:54.521Z,100.00
2022-10-11T14:48:57.342Z,100.00
2022-10-11T14:51:01.340Z,100.00
2022-10-11T14:53:05.855Z,100.00
2022-10-11T14:55:08.068Z,100.00
2022-10-11T14:57:12.176Z,100.00
2022-10-11T14:59:17.654Z,100.00
2022-10-11T15:01:19.930Z,100.00
2022-10-11T15:03:22.224Z,100.00
2022-10-11T15:05:31.137Z,100.00
2022-10-11T15:07:35.834Z,100.00
2022-10-11T15:09:38.354Z,100.00
2022-10-11T15:11:40.810Z,100.00
2022-10-11T15:13:43.188Z,100.00
2022-10-11T15:15:45.567Z,100.00
2022-10-11T15:17:56.136Z,100.00
2022-10-11T15:19:58.625Z,100.00
2022-10-11T15:22:02.362Z,100.00
2022-10-11T15:24:04.991Z,100.00
2022-10-11T15:26:07.680Z,100.00
2022-10-11T15:28:35.936Z,100.00
2022-10-11T15:30:41.569Z,100.00
2022-10-11T15:32:47.673Z,100.00
2022-10-11T15:34:50.190Z,100.00
2022-10-11T15:36:52.805Z,100.00
2022-10-11T15:39:00.345Z,100.00
2022-10-11T15:41:03.404Z,100.00
2022-10-11T15:43:05.994Z,100.00
2022-10-11T15:45:11.232Z,100.00
2022-10-11T15:47:17.070Z,100.00
2022-10-11T15:49:19.678Z,100.00
2022-10-11T15:51:22.076Z,100.00
2022-10-11T15:53:28.722Z,100.00
2022-10-11T15:55:32.809Z,100.00
2022-10-11T15:57:35.056Z,100.00
2022-10-11T15:59:37.444Z,100.00
2022-10-11T16:01:40.112Z,100.00
2022-10-11T16:03:43.965Z,100.00
2022-10-11T16:05:46.390Z,100.00
2022-10-11T16:07:48.754Z,100.00
2022-10-11T16:09:51.314Z,100.00
2022-10-11T16:11:53.641Z,100.00
2022-10-11T16:13:55.845Z,100.00
2022-10-11T16:16:04.647Z,100.00
2022-10-11T16:18:13.204Z,100.00
2022-10-11T16:20:18.644Z,100.00
2022-10-11T16:22:22.233Z,100.00
2022-10-11T16:24:24.481Z,100.00
2022-10-11T16:26:29.284Z,100.00
2022-10-11T16:28:32.601Z,100.00
2022-10-11T16:30:39.543Z,100.00
2022-10-11T16:32:42.206Z,100.00
2022-10-11T16:34:44.677Z,100.00
2022-10-11T16:36:48.907Z,100.00
2022-10-11T16:38:53.243Z,100.00
2022-10-11T16:40:58.521Z,100.00
2022-10-11T16:43:07.945Z,100.00
2022-10-11T16:45:11.790Z,100.00
2022-10-11T16:47:15.845Z,100.00
2022-10-11T16:49:22.079Z,100.00
2022-10-11T16:51:24.900Z,100.00
2022-10-11T16:53:27.487Z,100.00
2022-10-11T16:55:29.781Z,100.00
2022-10-11T16:57:32.043Z,100.00
2022-10-11T16:59:34.737Z,100.00
2022-10-11T17:01:37.038Z,100.00
2022-10-11T17:03:39.673Z,100.00
2022-10-11T17:05:42.179Z,100.00
2022-10-11T17:07:44.574Z,100.00
2022-10-11T17:09:48.744Z,100.00
2022-10-11T17:11:52.154Z,100.00
2022-10-11T17:13:55.559Z,100.00
2022-10-11T17:15:58.352Z,100.00
2022-10-11T17:18:02.910Z,100.00
2022-10-11T17:20:05.623Z,100.00
2022-10-11T17:22:11.794Z,100.00
2022-10-11T17:24:14.320Z,100.00
2022-10-11T17:26:21.041Z,100.00
2022-10-11T17:28:23.968Z,100.00
2022-10-11T17:30:26.577Z,100.00
2022-10-11T17:32:29.007Z,100.00
2022-10-11T17:34:32.075Z,100.00
2022-10-11T17:36:34.849Z,100.00
2022-10-11T17:38:37.142Z,100.00
2022-10-11T17:40:39.365Z,100.00
2022-10-11T17:42:41.949Z,100.00
2022-10-11T17:44:44.327Z,100.00
2022-10-11T17:46:47.598Z,100.00
2022-10-11T17:48:52.389Z,100.00
2022-10-11T17:50:55.138Z,100.00
2022-10-11T17:52:57.818Z,100.00
2022-10-11T17:55:00.611Z,100.00
2022-10-11T17:57:03.315Z,100.00
2022-10-11T17:59:06.738Z,100.00
2022-10-11T18:01:13.134Z,100.00
2022-10-11T18:03:15.648Z,100.00
2022-10-11T18:05:18.050Z,100.00
2022-10-11T18:07:20.465Z,100.00
2022-10-11T18:09:24.777Z,100.00
2022-10-11T18:11:27.120Z,100.00
2022-10-11T18:13:29.901Z,100.00
2022-10-11T18:15:32.829Z,100.00
2022-10-11T18:17:35.137Z,100.00
2022-10-11T18:19:37.836Z,100.00
2022-10-11T18:21:41.176Z,100.00
2022-10-11T18:23:43.766Z,100.00
2022-10-11T18:25:49.273Z,100.00
2022-10-11T18:27:52.990Z,100.00
2022-10-11T18:29:55.671Z,100.00
2022-10-11T18:31:58.325Z,100.00
2022-10-11T18:34:02.240Z,100.00
2022-10-11T18:36:07.644Z,100.00
2022-10-11T18:38:10.327Z,100.00
2022-10-11T18:40:13.001Z,100.00
2022-10-11T18:42:15.698Z,100.00
2022-10-11T18:44:18.462Z,100.00
2022-10-11T18:46:22.404Z,100.00
2022-10-11T18:48:24.816Z,100.00
2022-10-11T18:50:27.522Z,100.00
2022-10-11T18:52:30.458Z,100.00
2022-10-11T18:54:33.130Z,100.00
2022-10-11T18:56:37.077Z,100.00
2022-10-11T18:58:41.069Z,100.00
2022-10-11T19:00:43.657Z,100.00
2022-10-11T19:02:46.700Z,100.00
2022-10-11T19:04:53.010Z,100.00
2022-10-11T19:06:55.458Z,100.00
2022-10-11T19:09:03.872Z,100.00
2022-10-11T19:11:12.849Z,100.00
2022-10-11T19:13:15.439Z,100.00
2022-10-11T19:15:17.718Z,100.00
2022-10-11T19:17:22.891Z,100.00
2022-10-11T19:19:27.645Z,100.00
2022-10-11T19:21:30.388Z,100.00
2022-10-11T19:23:43.610Z,100.00
2022-10-11T19:25:46.256Z,100.00
2022-10-11T19:27:48.625Z,100.00
2022-10-11T19:29:51.188Z,100.00
2022-10-11T19:31:56.656Z,100.00
2022-10-11T19:33:59.094Z,100.00
2022-10-11T19:36:05.121Z,100.00
2022-10-11T19:38:10.127Z,100.00
2022-10-11T19:40:12.883Z,100.00
2022-10-11T19:42:17.718Z,100.00
2022-10-11T19:44:20.588Z,100.00
2022-10-11T19:46:44.525Z,100.00
2022-10-11T19:48:45.390Z,100.00
2022-10-11T19:50:47.651Z,100.00
2022-10-11T19:52:50.270Z,100.00
2022-10-11T19:54:53.342Z,100.00
2022-10-11T19:56:58.061Z,100.00
2022-10-11T19:59:01.347Z,100.00
2022-10-11T20:01:07.477Z,100.00
2022-10-11T20:03:10.211Z,100.00
2022-10-11T20:05:12.865Z,100.00
2022-10-11T20:07:15.212Z,100.00
2022-10-11T20:09:29.095Z,100.00
2022-10-11T20:11:32.606Z,100.00
2022-10-11T20:13:37.251Z,100.00
2022-10-11T20:15:39.975Z,100.00
2022-10-11T20:17:48.349Z,100.00
2022-10-11T20:19:50.754Z,100.00
2022-10-11T20:21:56.686Z,100.00
2022-10-11T20:24:01.677Z,100.00
2022-10-11T20:26:11.219Z,100.00
2022-10-11T20:28:13.880Z,100.00
2022-10-11T20:30:16.296Z,100.00
2022-10-11T20:32:18.529Z,100.00
2022-10-11T20:34:21.010Z,100.00
2022-10-11T20:36:25.284Z,100.00
2022-10-11T20:38:29.270Z,100.00
2022-10-11T20:40:31.974Z,100.00
2022-10-11T20:42:34.200Z,100.00
2022-10-11T20:44:36.421Z,100.00
2022-10-11T20:46:39.502Z,100.00
2022-10-11T20:48:42.349Z,100.00
2022-10-11T20:50:45.324Z,100.00
2022-10-11T20:52:48.113Z,100.00
2022-10-11T20:54:50.400Z,100.00
2022-10-11T20:56:52.647Z,100.00
2022-10-11T20:58:56.642Z,100.00
2022-10-11T21:00:59.088Z,100.00
2022-10-11T21:03:03.884Z,100.00
2022-10-11T21:05:06.981Z,100.00
2022-10-11T21:07:09.255Z,100.00
2022-10-11T21:09:14.033Z,100.00
2022-10-11T21:11:18.914Z,100.00
2022-10-11T21:13:21.616Z,100.00
2022-10-11T21:15:24.131Z,100.00
2022-10-11T21:17:26.644Z,100.00
2022-10-11T21:19:28.908Z,100.00
2022-10-11T21:21:31.350Z,100.00
2022-10-11T21:23:34.599Z,100.00
2022-10-11T21:25:37.769Z,100.00
2022-10-11T21:27:40.344Z,100.00
2022-10-11T21:29:43.777Z,100.00
2022-10-11T21:31:45.978Z,100.00
2022-10-11T21:33:48.700Z,100.00
2022-10-11T21:35:51.209Z,100.00
2022-10-11T21:37:58.145Z,100.00
2022-10-11T21:40:00.354Z,100.00
2022-10-11T21:42:03.168Z,100.00
